Time;durP1;ratioP1;P1;durP2;ratioP2;P2;SDS_P1;SDS_P2;PMS_P1;PMS_P2;Temp;Humidity;BMP_temperature;BMP_pressure;BME280_temperature;BME280_humidity;BME280_pressure;Samples;Min_cycle;Max_cycle;Signal;HPM_P1;HPM_P2
2023/09/11 00:00:44;;;;;;;32.17;20.30;;;21.10;99.90;;;;;;5025775;28;20585;-55
2023/09/11 00:03:09;;;;;;;32.20;20.52;;;21.00;99.90;;;;;;5023064;28;20653;-55
2023/09/11 00:05:35;;;;;;;26.52;19.50;;;21.10;99.90;;;;;;5020336;28;20405;-56
2023/09/11 00:08:00;;;;;;;29.35;20.90;;;21.00;99.90;;;;;;5021529;28;20040;-55
2023/09/11 00:10:26;;;;;;;28.15;21.05;;;21.00;99.90;;;;;;5022230;28;20632;-55
2023/09/11 00:12:52;;;;;;;24.45;20.10;;;20.90;99.90;;;;;;5020514;28;20519;-56
2023/09/11 00:15:17;;;;;;;26.77;21.08;;;21.00;99.90;;;;;;5023410;28;20099;-55
2023/09/11 00:17:43;;;;;;;29.08;21.50;;;20.90;99.90;;;;;;5023683;28;21310;-56
2023/09/11 00:20:09;;;;;;;28.48;21.10;;;20.80;99.90;;;;;;5024541;28;20362;-56
2023/09/11 00:22:35;;;;;;;27.33;19.85;;;20.80;99.90;;;;;;5023339;28;20040;-55
2023/09/11 00:25:01;;;;;;;31.27;20.83;;;20.70;99.90;;;;;;5056917;28;20037;-56
2023/09/11 00:27:26;;;;;;;26.85;20.45;;;20.70;99.90;;;;;;5006514;28;20359;-56
2023/09/11 00:29:52;;;;;;;26.13;20.08;;;20.60;99.90;;;;;;5006954;28;20425;-56
2023/09/11 00:32:18;;;;;;;27.80;20.17;;;20.70;99.90;;;;;;5007873;28;20037;-55
2023/09/11 00:34:43;;;;;;;31.83;21.08;;;20.60;99.90;;;;;;5003652;28;20038;-56
2023/09/11 00:37:09;;;;;;;28.73;20.02;;;20.50;99.90;;;;;;5002547;28;20455;-55
2023/09/11 00:39:35;;;;;;;28.67;21.02;;;20.50;99.90;;;;;;5036970;28;20037;-55
2023/09/11 00:42:00;;;;;;;29.98;20.63;;;20.50;99.90;;;;;;5004088;28;20049;-55
2023/09/11 00:44:26;;;;;;;31.67;21.15;;;20.60;99.90;;;;;;5005743;28;20206;-56
2023/09/11 00:46:52;;;;;;;26.92;19.90;;;20.70;99.90;;;;;;5004332;28;20048;-57
2023/09/11 00:49:20;;;;;;;32.03;20.95;;;20.70;99.90;;;;;;5007226;28;20034;-56
2023/09/11 00:51:46;;;;;;;31.05;20.17;;;20.80;99.90;;;;;;5002563;28;20120;-55
2023/09/11 00:54:14;;;;;;;29.40;20.50;;;20.70;99.90;;;;;;5003461;28;20039;-56
2023/09/11 00:56:39;;;;;;;27.83;20.40;;;20.70;99.90;;;;;;5005226;28;20076;-55
2023/09/11 00:59:06;;;;;;;28.70;20.67;;;20.60;99.90;;;;;;5004110;28;20459;-54
2023/09/11 01:01:32;;;;;;;31.17;20.95;;;20.60;99.90;;;;;;5007810;28;20485;-55
2023/09/11 01:03:58;;;;;;;30.00;19.88;;;20.50;99.90;;;;;;5004718;28;20038;-56
2023/09/11 01:06:23;;;;;;;26.80;19.10;;;20.40;99.90;;;;;;5005096;28;20145;-56
2023/09/11 01:08:51;;;;;;;30.90;20.27;;;20.40;99.90;;;;;;5005876;28;20124;-56
2023/09/11 01:11:18;;;;;;;25.35;18.92;;;20.40;99.90;;;;;;5002362;28;20116;-56
2023/09/11 01:13:44;;;;;;;26.88;19.95;;;20.30;99.90;;;;;;5008497;28;20075;-56
2023/09/11 01:16:23;;;;;;;29.63;19.33;;;20.30;99.90;;;;;;5004898;28;20126;-56
2023/09/11 01:18:57;;;;;;;26.35;19.17;;;20.30;99.90;;;;;;5006398;28;20037;-55
2023/09/11 01:21:42;;;;;;;33.10;19.85;;;20.20;99.90;;;;;;5008268;28;20037;-56
2023/09/11 01:24:50;;;;;;;26.30;19.25;;;20.20;99.90;;;;;;5000638;28;20041;-55
2023/09/11 01:27:26;;;;;;;28.55;18.77;;;20.20;99.90;;;;;;4990326;28;20133;-55
2023/09/11 01:29:52;;;;;;;28.42;18.50;;;20.20;99.90;;;;;;5005070;28;20034;-56
2023/09/11 01:32:19;;;;;;;30.40;19.73;;;20.10;99.90;;;;;;5005617;28;20041;-55
2023/09/11 01:34:45;;;;;;;26.67;18.95;;;20.20;99.90;;;;;;5012755;28;20669;-56
2023/09/11 01:37:10;;;;;;;28.98;18.77;;;20.20;99.90;;;;;;5002907;28;20060;-55
2023/09/11 01:39:36;;;;;;;28.60;18.80;;;20.20;99.90;;;;;;5006232;28;20053;-56
2023/09/11 01:42:07;;;;;;;31.02;19.80;;;20.20;99.90;;;;;;5007757;28;20455;-56
2023/09/11 01:44:44;;;;;;;29.15;19.83;;;20.10;99.90;;;;;;5003167;28;20176;-54
2023/09/11 01:47:17;;;;;;;29.50;19.77;;;20.10;99.90;;;;;;5006109;28;20049;-55
2023/09/11 01:49:45;;;;;;;25.00;19.17;;;20.10;99.90;;;;;;5003563;28;20041;-55
2023/09/11 01:52:11;;;;;;;29.42;19.35;;;20.10;99.90;;;;;;5010739;28;20112;-55
2023/09/11 01:54:37;;;;;;;29.95;19.25;;;19.90;99.90;;;;;;5007558;28;20045;-55
2023/09/11 01:57:05;;;;;;;28.27;19.25;;;20.00;99.90;;;;;;5007460;28;20064;-56
2023/09/11 01:59:31;;;;;;;27.80;19.15;;;19.90;99.90;;;;;;5008553;28;20140;-56
2023/09/11 02:01:57;;;;;;;32.70;20.25;;;19.90;99.90;;;;;;5008780;28;20033;-56
2023/09/11 02:04:22;;;;;;;29.05;19.63;;;19.90;99.90;;;;;;5006741;28;20095;-54
2023/09/11 02:06:48;;;;;;;32.63;20.05;;;20.00;99.90;;;;;;5012048;28;20033;-56
2023/09/11 02:09:13;;;;;;;29.77;21.35;;;20.00;99.90;;;;;;5009831;28;20124;-56
2023/09/11 02:11:39;;;;;;;26.63;18.83;;;20.00;99.90;;;;;;5007847;28;20188;-54
2023/09/11 02:14:04;;;;;;;29.30;20.45;;;20.00;99.90;;;;;;5006231;28;20022;-56
2023/09/11 02:16:30;;;;;;;30.45;20.25;;;19.80;99.90;;;;;;5007865;28;20038;-57
2023/09/11 02:18:56;;;;;;;32.97;19.70;;;19.80;99.90;;;;;;5010821;28;20375;-55
2023/09/11 02:21:21;;;;;;;38.63;21.38;;;19.90;99.90;;;;;;5007400;28;20038;-55
2023/09/11 02:23:47;;;;;;;31.77;21.17;;;19.80;99.90;;;;;;5009057;28;20049;-56
2023/09/11 02:26:12;;;;;;;35.03;22.40;;;20.00;99.90;;;;;;5010242;28;20069;-57
2023/09/11 02:28:38;;;;;;;30.42;20.67;;;19.90;99.90;;;;;;5007908;28;20041;-56
2023/09/11 02:31:03;;;;;;;31.33;20.65;;;19.80;99.90;;;;;;5007017;28;20744;-57
2023/09/11 02:33:29;;;;;;;29.35;19.63;;;19.70;99.90;;;;;;5005446;28;20097;-56
2023/09/11 02:35:56;;;;;;;29.13;20.00;;;19.80;99.90;;;;;;5007072;28;20030;-56
2023/09/11 02:38:22;;;;;;;30.17;20.95;;;19.70;99.90;;;;;;5010055;28;20115;-55
2023/09/11 02:40:48;;;;;;;28.42;21.27;;;19.80;99.90;;;;;;5007589;28;20635;-56
2023/09/11 02:43:13;;;;;;;35.38;22.05;;;19.80;99.90;;;;;;5006478;28;20025;-57
2023/09/11 02:45:43;;;;;;;33.65;21.17;;;19.70;99.90;;;;;;5011138;28;20165;-56
2023/09/11 02:48:08;;;;;;;28.55;20.58;;;19.70;99.90;;;;;;5007976;28;20390;-56
2023/09/11 02:50:34;;;;;;;32.58;21.70;;;19.70;99.90;;;;;;5007406;28;20042;-56
2023/09/11 02:52:59;;;;;;;34.55;22.00;;;19.80;99.90;;;;;;5008893;28;20040;-57
2023/09/11 02:55:25;;;;;;;32.50;21.25;;;19.80;99.90;;;;;;5007572;28;20053;-55
2023/09/11 02:57:50;;;;;;;29.85;20.98;;;19.70;99.90;;;;;;5008024;28;20038;-54
2023/09/11 03:00:16;;;;;;;31.35;21.45;;;19.60;99.90;;;;;;5006098;28;20045;-55
2023/09/11 03:02:42;;;;;;;37.03;22.15;;;19.60;99.90;;;;;;4998190;28;20128;-56
2023/09/11 03:05:08;;;;;;;34.20;22.55;;;19.80;99.90;;;;;;5006916;28;20022;-57
2023/09/11 03:07:33;;;;;;;30.90;21.55;;;19.70;99.90;;;;;;5008957;28;20049;-56
2023/09/11 03:09:59;;;;;;;29.55;22.30;;;19.70;99.90;;;;;;5005651;28;20038;-56
2023/09/11 03:12:24;;;;;;;30.30;23.30;;;19.80;99.90;;;;;;5008692;28;20033;-55
2023/09/11 03:14:52;;;;;;;31.58;22.17;;;19.80;99.90;;;;;;5008173;28;20409;-55
2023/09/11 03:17:18;;;;;;;32.08;22.33;;;19.70;99.90;;;;;;5009111;28;20033;-56
2023/09/11 03:19:44;;;;;;;34.78;22.35;;;19.70;99.90;;;;;;5008538;28;20034;-56
2023/09/11 03:22:10;;;;;;;32.55;23.23;;;19.80;99.90;;;;;;5008923;28;20117;-56
2023/09/11 03:24:35;;;;;;;37.40;25.67;;;19.80;99.90;;;;;;5006520;28;20038;-56
2023/09/11 03:27:01;;;;;;;33.88;23.10;;;20.00;99.90;;;;;;5009996;28;20473;-55
2023/09/11 03:29:26;;;;;;;34.13;23.17;;;19.80;99.90;;;;;;5006937;28;20141;-56
2023/09/11 03:31:52;;;;;;;33.58;23.80;;;19.80;99.90;;;;;;5004962;28;20065;-56
2023/09/11 03:34:17;;;;;;;33.30;23.17;;;19.70;99.90;;;;;;5011730;28;20034;-56
2023/09/11 03:36:43;;;;;;;36.70;23.98;;;19.90;99.90;;;;;;5005767;28;20041;-56
2023/09/11 03:39:09;;;;;;;40.38;24.45;;;19.90;99.90;;;;;;5006449;28;20053;-56
2023/09/11 03:41:34;;;;;;;39.08;24.85;;;19.90;99.90;;;;;;5011302;28;20040;-56
2023/09/11 03:44:00;;;;;;;32.40;24.30;;;20.00;99.90;;;;;;5005458;28;20030;-56
2023/09/11 03:46:25;;;;;;;33.47;23.70;;;19.90;99.90;;;;;;5007053;28;20398;-56
2023/09/11 03:48:51;;;;;;;36.00;24.08;;;19.80;99.90;;;;;;5009065;28;20037;-57
2023/09/11 03:51:16;;;;;;;36.47;24.90;;;19.80;99.90;;;;;;5007411;28;20018;-56
2023/09/11 03:53:43;;;;;;;35.72;24.30;;;19.90;99.90;;;;;;5004846;28;20388;-56
2023/09/11 03:56:10;;;;;;;36.95;24.08;;;19.90;99.90;;;;;;5006568;28;20026;-56
2023/09/11 03:58:36;;;;;;;32.72;22.33;;;19.80;99.90;;;;;;5005280;28;20043;-56
2023/09/11 04:01:01;;;;;;;31.80;24.08;;;19.70;99.90;;;;;;5004691;28;20033;-56
2023/09/11 04:03:27;;;;;;;37.30;24.67;;;19.90;99.90;;;;;;5005227;28;20460;-56
2023/09/11 04:05:52;;;;;;;32.47;23.85;;;19.90;99.90;;;;;;5007538;28;20070;-56
2023/09/11 04:08:18;;;;;;;34.17;23.02;;;19.80;99.90;;;;;;5001553;28;20072;-56
2023/09/11 04:10:44;;;;;;;36.03;23.48;;;19.80;99.90;;;;;;5006182;28;20069;-56
2023/09/11 04:13:10;;;;;;;35.83;23.63;;;19.80;99.90;;;;;;5003679;28;20064;-54
2023/09/11 04:15:36;;;;;;;36.55;22.58;;;19.80;99.90;;;;;;5002562;28;20387;-57
2023/09/11 04:18:02;;;;;;;38.75;22.63;;;19.80;99.90;;;;;;5004954;28;20034;-56
2023/09/11 04:20:32;;;;;;;34.10;22.75;;;19.80;99.90;;;;;;5004219;28;20363;-56
2023/09/11 04:23:07;;;;;;;35.00;24.13;;;19.70;99.90;;;;;;5003748;28;20038;-56
2023/09/11 04:25:33;;;;;;;37.72;22.48;;;19.70;99.90;;;;;;5010972;28;20107;-56
2023/09/11 04:27:59;;;;;;;36.00;23.45;;;19.60;99.90;;;;;;5004656;28;20132;-57
2023/09/11 04:30:24;;;;;;;44.85;23.30;;;19.70;99.90;;;;;;5004356;28;20054;-56
2023/09/11 04:32:50;;;;;;;36.53;23.38;;;19.80;99.90;;;;;;5005643;28;20117;-56
2023/09/11 04:35:15;;;;;;;38.17;23.83;;;19.70;99.90;;;;;;5007073;28;20381;-57
2023/09/11 04:37:41;;;;;;;38.20;23.98;;;19.70;99.90;;;;;;5010339;28;20329;-56
2023/09/11 04:40:07;;;;;;;34.25;23.63;;;19.80;99.90;;;;;;5006054;28;20047;-55
2023/09/11 04:42:33;;;;;;;36.78;24.70;;;19.70;99.90;;;;;;5004796;28;20061;-56
2023/09/11 04:44:59;;;;;;;33.83;23.38;;;19.80;99.90;;;;;;5006611;28;20121;-56
2023/09/11 04:47:32;;;;;;;38.30;24.67;;;19.80;99.90;;;;;;5002635;28;20180;-56
2023/09/11 04:49:58;;;;;;;38.35;23.73;;;19.90;99.90;;;;;;4998979;28;20478;-56
2023/09/11 04:52:24;;;;;;;33.17;23.70;;;19.80;99.90;;;;;;5000787;28;20529;-56
2023/09/11 04:54:50;;;;;;;33.40;22.80;;;19.80;99.90;;;;;;5010980;28;20080;-56
2023/09/11 04:57:16;;;;;;;37.22;22.63;;;19.70;99.90;;;;;;5023097;28;20413;-56
2023/09/11 04:59:42;;;;;;;37.53;22.90;;;19.60;99.90;;;;;;5015106;28;20618;-56
2023/09/11 05:02:09;;;;;;;38.38;23.90;;;19.70;99.90;;;;;;5013654;28;20037;-57
2023/09/11 05:04:35;;;;;;;38.05;23.27;;;19.70;99.90;;;;;;5003603;28;20501;-57
2023/09/11 05:07:01;;;;;;;36.33;21.50;;;19.70;99.90;;;;;;5003871;28;20061;-56
2023/09/11 05:09:26;;;;;;;42.80;23.13;;;19.70;99.90;;;;;;5002791;28;20049;-56
2023/09/11 05:11:52;;;;;;;39.20;22.90;;;19.80;99.90;;;;;;5001266;28;20034;-56
2023/09/11 05:14:17;;;;;;;35.95;22.67;;;19.90;99.90;;;;;;5000556;28;20513;-56
2023/09/11 05:16:43;;;;;;;36.50;20.83;;;19.90;99.90;;;;;;4996780;28;20375;-56
2023/09/11 05:19:09;;;;;;;34.00;23.08;;;19.80;99.90;;;;;;5003784;28;20109;-57
2023/09/11 05:21:36;;;;;;;39.33;22.75;;;19.80;99.90;;;;;;5000486;28;20026;-55
2023/09/11 05:24:03;;;;;;;79.95;55.40;;;19.80;99.90;;;;;;5000746;28;20466;-55
2023/09/11 05:26:29;;;;;;;41.78;26.58;;;19.90;99.90;;;;;;5003554;28;20032;-59
2023/09/11 05:28:54;;;;;;;58.70;38.35;;;20.00;99.90;;;;;;5003115;28;20116;-58
2023/09/11 05:31:20;;;;;;;41.83;24.70;;;19.90;99.90;;;;;;5002674;28;20673;-57
2023/09/11 05:33:45;;;;;;;30.40;21.60;;;19.80;99.90;;;;;;5000822;28;20037;-58
2023/09/11 05:36:11;;;;;;;39.28;21.38;;;19.80;99.90;;;;;;5001984;28;20053;-57
2023/09/11 05:38:37;;;;;;;32.22;20.73;;;19.70;99.90;;;;;;5003987;28;20121;-58
2023/09/11 05:41:03;;;;;;;34.58;21.02;;;19.80;99.90;;;;;;5002508;28;20045;-57
2023/09/11 05:43:28;;;;;;;39.22;23.10;;;19.90;99.90;;;;;;5002598;28;20518;-56
2023/09/11 05:45:55;;;;;;;40.65;22.98;;;19.90;99.90;;;;;;4999265;28;20042;-58
2023/09/11 05:48:20;;;;;;;42.75;21.23;;;19.90;99.90;;;;;;4998314;28;20343;-58
2023/09/11 05:50:46;;;;;;;31.13;20.38;;;19.90;99.90;;;;;;5003396;28;20034;-58
2023/09/11 05:53:11;;;;;;;32.40;19.83;;;19.90;99.90;;;;;;4999849;28;20145;-57
2023/09/11 05:55:38;;;;;;;38.13;22.30;;;20.00;99.90;;;;;;5002775;28;20034;-57
2023/09/11 05:58:04;;;;;;;29.50;20.92;;;20.00;99.90;;;;;;5002608;28;20087;-57
2023/09/11 06:00:29;;;;;;;34.47;20.45;;;19.90;99.90;;;;;;5002820;28;20125;-57
2023/09/11 06:02:55;;;;;;;35.03;19.77;;;20.00;99.90;;;;;;5001239;28;20041;-57
2023/09/11 06:05:21;;;;;;;38.00;20.35;;;20.00;99.90;;;;;;5002165;28;20038;-58
2023/09/11 06:07:47;;;;;;;78.13;45.80;;;20.20;99.90;;;;;;5005562;28;20584;-57
2023/09/11 06:10:13;;;;;;;43.90;23.40;;;20.20;99.90;;;;;;5002170;28;20045;-57
2023/09/11 06:12:39;;;;;;;38.75;20.67;;;20.30;99.90;;;;;;5002440;28;20406;-56
2023/09/11 06:15:06;;;;;;;33.90;20.55;;;20.30;99.90;;;;;;5004744;28;20041;-56
2023/09/11 06:17:32;;;;;;;36.05;20.30;;;20.40;99.90;;;;;;5017640;28;20054;-56
2023/09/11 06:19:58;;;;;;;33.75;19.27;;;20.50;99.90;;;;;;5022773;28;20055;-55
2023/09/11 06:22:24;;;;;;;37.15;19.08;;;20.50;99.90;;;;;;5024322;28;20144;-58
2023/09/11 06:24:50;;;;;;;41.97;20.05;;;20.60;99.90;;;;;;5021193;28;20086;-59
2023/09/11 06:27:16;;;;;;;39.40;19.10;;;20.60;99.90;;;;;;5026687;28;20402;-58
2023/09/11 06:29:41;;;;;;;34.42;18.92;;;20.60;99.90;;;;;;5023540;28;20037;-59
2023/09/11 06:32:07;;;;;;;36.72;19.50;;;20.80;99.90;;;;;;5021768;28;20107;-59
2023/09/11 06:34:34;;;;;;;36.40;18.33;;;20.90;99.90;;;;;;5026595;28;20033;-58
2023/09/11 06:36:59;;;;;;;36.20;18.23;;;20.90;99.90;;;;;;5027284;28;20132;-57
2023/09/11 06:39:25;;;;;;;37.60;19.27;;;21.00;99.90;;;;;;5024790;28;20095;-58
2023/09/11 06:41:51;;;;;;;33.50;18.95;;;21.20;99.90;;;;;;5026618;28;20064;-56
2023/09/11 06:44:17;;;;;;;38.70;17.92;;;21.30;99.90;;;;;;5028016;28;20034;-55
2023/09/11 06:46:42;;;;;;;36.13;17.75;;;21.20;99.90;;;;;;5031109;28;20094;-57
2023/09/11 06:49:08;;;;;;;30.02;17.50;;;21.20;99.90;;;;;;5028423;28;20065;-55
2023/09/11 06:51:34;;;;;;;36.75;18.65;;;21.30;99.90;;;;;;5025549;28;20091;-56
2023/09/11 06:54:01;;;;;;;34.90;17.25;;;21.60;99.90;;;;;;5024376;28;20029;-57
2023/09/11 06:56:26;;;;;;;41.88;17.65;;;21.50;99.90;;;;;;5025774;28;20025;-57
2023/09/11 06:58:52;;;;;;;33.78;16.92;;;21.50;99.90;;;;;;5028934;28;20141;-56
2023/09/11 07:01:17;;;;;;;41.42;17.63;;;21.60;99.90;;;;;;5024930;28;20448;-57
2023/09/11 07:03:46;;;;;;;36.22;17.05;;;21.60;99.90;;;;;;5024847;28;20389;-56
2023/09/11 07:06:12;;;;;;;32.28;17.15;;;21.70;99.90;;;;;;5026686;28;20425;-55
2023/09/11 07:08:37;;;;;;;36.53;16.55;;;21.70;99.90;;;;;;5034789;28;20032;-56
2023/09/11 07:11:03;;;;;;;32.45;15.80;;;21.80;99.90;;;;;;5020092;28;20128;-56
2023/09/11 07:13:28;;;;;;;33.88;15.38;;;21.80;99.90;;;;;;5021063;28;20045;-56
2023/09/11 07:15:56;;;;;;;37.80;16.45;;;21.80;99.90;;;;;;5010498;28;20042;-56
2023/09/11 07:18:21;;;;;;;34.70;16.63;;;21.90;99.90;;;;;;5007503;28;20055;-56
2023/09/11 07:20:47;;;;;;;31.30;15.40;;;22.00;99.90;;;;;;5014352;28;20033;-57
2023/09/11 07:23:13;;;;;;;26.17;15.43;;;22.00;99.90;;;;;;5014718;28;20616;-57
2023/09/11 07:25:38;;;;;;;38.13;15.05;;;22.30;99.90;;;;;;5012310;28;20033;-57
2023/09/11 07:28:05;;;;;;;35.58;15.43;;;22.20;99.90;;;;;;5024113;28;20044;-57
2023/09/11 07:30:31;;;;;;;35.03;14.98;;;22.20;99.90;;;;;;5019502;28;20746;-56
2023/09/11 07:32:56;;;;;;;50.25;19.88;;;22.30;99.90;;;;;;5023439;28;20037;-55
2023/09/11 07:35:22;;;;;;;29.75;14.73;;;22.30;99.90;;;;;;5023310;28;20037;-56
2023/09/11 07:37:48;;;;;;;29.27;14.38;;;22.40;99.90;;;;;;5024669;28;20120;-56
2023/09/11 07:40:14;;;;;;;30.38;14.27;;;22.40;99.90;;;;;;5025462;28;20065;-56
2023/09/11 07:42:40;;;;;;;33.03;14.73;;;22.40;99.90;;;;;;5025352;28;20057;-57
2023/09/11 07:45:06;;;;;;;31.95;14.07;;;22.50;99.90;;;;;;5024912;28;20042;-57
2023/09/11 07:47:32;;;;;;;40.08;14.02;;;22.60;99.90;;;;;;5025097;28;20405;-57
2023/09/11 07:49:57;;;;;;;30.98;14.82;;;22.70;99.90;;;;;;5025044;28;20128;-57
2023/09/11 07:52:23;;;;;;;29.33;14.30;;;22.40;99.90;;;;;;5025081;28;20395;-56
2023/09/11 07:54:49;;;;;;;34.17;14.63;;;22.80;99.90;;;;;;5023207;28;20029;-57
2023/09/11 07:57:14;;;;;;;33.65;15.27;;;22.80;99.90;;;;;;5024586;28;20409;-57
2023/09/11 07:59:40;;;;;;;36.13;14.55;;;22.80;99.90;;;;;;5020959;28;20048;-57
2023/09/11 08:02:05;;;;;;;28.92;14.20;;;22.90;99.90;;;;;;5019875;28;20044;-57
2023/09/11 08:04:32;;;;;;;33.90;14.13;;;23.00;99.90;;;;;;5012184;28;20091;-56
2023/09/11 08:06:58;;;;;;;37.42;13.68;;;23.20;99.90;;;;;;5002201;28;20410;-57
2023/09/11 08:09:24;;;;;;;33.15;13.82;;;23.50;99.90;;;;;;5003713;28;20050;-57
2023/09/11 08:11:50;;;;;;;28.17;13.55;;;23.20;99.90;;;;;;5004593;28;20100;-57
2023/09/11 08:14:16;;;;;;;30.58;13.18;;;23.20;99.90;;;;;;5004129;28;20038;-55
2023/09/11 08:16:42;;;;;;;25.90;12.85;;;23.30;99.90;;;;;;5004678;28;20478;-56
2023/09/11 08:19:09;;;;;;;27.77;12.35;;;23.30;99.90;;;;;;5003650;28;20033;-56
2023/09/11 08:21:34;;;;;;;29.80;12.60;;;23.80;99.90;;;;;;5004921;28;20050;-57
2023/09/11 08:24:00;;;;;;;22.73;11.95;;;23.50;99.90;;;;;;5013152;28;20096;-57
2023/09/11 08:26:26;;;;;;;21.20;11.65;;;23.70;99.90;;;;;;5006170;28;20022;-56
2023/09/11 08:28:51;;;;;;;25.70;10.93;;;23.50;99.90;;;;;;5004021;28;20042;-56
2023/09/11 08:31:17;;;;;;;30.08;11.00;;;23.70;99.90;;;;;;5004725;28;20034;-56
2023/09/11 08:33:43;;;;;;;25.77;11.60;;;23.80;99.90;;;;;;5014868;28;20096;-57
2023/09/11 08:36:09;;;;;;;28.08;11.35;;;23.80;99.90;;;;;;5000209;28;20040;-56
2023/09/11 08:38:35;;;;;;;27.30;11.07;;;23.90;99.90;;;;;;5012505;28;20103;-56
2023/09/11 08:41:04;;;;;;;25.33;10.57;;;23.90;99.90;;;;;;5004539;28;20046;-57
2023/09/11 08:43:30;;;;;;;22.15;10.15;;;24.00;99.90;;;;;;5011781;28;20384;-56
2023/09/11 08:45:57;;;;;;;23.50;10.55;;;24.00;99.90;;;;;;5003467;28;20144;-57
2023/09/11 08:48:29;;;;;;;26.27;10.50;;;24.10;99.90;;;;;;5009061;28;20470;-56
2023/09/11 08:51:00;;;;;;;23.52;10.65;;;24.20;99.90;;;;;;5004516;28;20153;-56
2023/09/11 08:53:27;;;;;;;24.30;10.35;;;24.30;99.90;;;;;;5002711;28;20041;-56
2023/09/11 08:55:53;;;;;;;20.85;10.35;;;24.30;99.90;;;;;;5003566;28;20036;-57
2023/09/11 08:58:23;;;;;;;25.55;9.60;;;24.30;99.90;;;;;;5004047;28;20037;-57
2023/09/11 09:00:49;;;;;;;21.13;9.65;;;24.60;99.90;;;;;;5003213;28;20077;-55
2023/09/11 09:03:16;;;;;;;23.85;10.25;;;24.40;99.90;;;;;;5002721;28;20094;-57
2023/09/11 09:05:42;;;;;;;25.25;9.95;;;24.50;99.90;;;;;;5003657;28;20125;-57
2023/09/11 09:08:12;;;;;;;18.45;9.65;;;24.60;99.90;;;;;;5003305;28;20064;-57
2023/09/11 09:10:42;;;;;;;22.85;10.85;;;24.60;99.90;;;;;;4994851;28;20048;-57
2023/09/11 09:13:09;;;;;;;27.02;9.52;;;24.60;99.90;;;;;;5002970;28;20427;-56
2023/09/11 09:15:40;;;;;;;21.92;9.95;;;24.70;99.90;;;;;;5001872;28;20408;-56
2023/09/11 09:18:06;;;;;;;20.23;9.65;;;24.70;99.90;;;;;;5022829;28;20041;-57
2023/09/11 09:20:32;;;;;;;21.42;10.00;;;24.80;99.90;;;;;;5026182;28;20101;-56
2023/09/11 09:22:58;;;;;;;24.58;10.15;;;24.80;99.90;;;;;;5021275;28;20521;-58
2023/09/11 09:25:25;;;;;;;23.00;9.98;;;24.80;99.90;;;;;;4992376;28;20103;-57
2023/09/11 09:27:51;;;;;;;26.60;10.40;;;24.90;99.90;;;;;;5003876;28;20057;-58
2023/09/11 09:30:36;;;;;;;23.50;10.23;;;24.90;99.90;;;;;;5031621;28;20061;-58
2023/09/11 09:33:02;;;;;;;19.30;9.15;;;25.00;99.90;;;;;;5026242;28;20034;-58
2023/09/11 09:35:31;;;;;;;31.40;10.55;;;25.00;99.90;;;;;;5027270;28;20029;-58
2023/09/11 09:37:59;;;;;;;25.75;10.25;;;25.20;99.90;;;;;;5022690;28;20036;-59
2023/09/11 09:40:35;;;;;;;22.98;10.60;;;25.20;99.90;;;;;;5054269;28;20045;-57
2023/09/11 09:43:04;;;;;;;23.20;10.88;;;25.30;99.90;;;;;;5022924;28;20087;-58
2023/09/11 09:45:34;;;;;;;23.85;9.50;;;25.30;99.90;;;;;;5022907;28;20042;-58
2023/09/11 09:48:10;;;;;;;22.20;11.18;;;25.20;99.90;;;;;;5022040;28;20045;-58
2023/09/11 09:50:53;;;;;;;25.58;10.30;;;25.30;99.90;;;;;;5014884;28;20511;-58
2023/09/11 09:53:27;;;;;;;;;;;25.30;99.90;;;;;;5034215;28;20057;-57
2023/09/11 09:55:57;;;;;;;22.92;10.52;;;;;;;;;;5022020;28;19929;-56
2023/09/11 09:58:27;;;;;;;23.20;10.82;;;25.40;99.90;;;;;;5021824;28;20246;-58
2023/09/11 10:01:20;;;;;;;28.83;11.15;;;25.40;99.90;;;;;;5015545;28;20643;-58
2023/09/11 10:03:45;;;;;;;25.15;10.80;;;25.50;99.90;;;;;;5011302;28;20128;-58
2023/09/11 10:06:16;;;;;;;21.02;9.75;;;25.50;99.90;;;;;;5021418;28;20061;-58
2023/09/11 10:08:42;;;;;;;20.65;10.43;;;25.50;99.90;;;;;;5022201;28;20041;-58
2023/09/11 10:11:08;;;;;;;30.58;11.23;;;25.50;99.90;;;;;;5021444;28;20041;-58
2023/09/11 10:13:35;;;;;;;22.10;10.25;;;25.60;99.90;;;;;;5023666;28;20040;-57
2023/09/11 10:16:02;;;;;;;19.95;9.80;;;25.50;99.90;;;;;;5025661;28;20033;-57
2023/09/11 10:18:32;;;;;;;22.92;10.98;;;25.60;99.90;;;;;;5036576;28;20111;-57
2023/09/11 10:20:59;;;;;;;23.38;10.95;;;25.60;99.90;;;;;;5026127;28;20033;-57
2023/09/11 10:23:24;;;;;;;32.92;11.38;;;25.60;99.90;;;;;;5032783;28;20160;-57
2023/09/11 10:25:56;;;;;;;21.33;10.63;;;25.60;99.90;;;;;;5026352;28;20037;-57
2023/09/11 10:28:33;;;;;;;27.17;11.13;;;25.60;99.90;;;;;;5026115;28;20048;-57
2023/09/11 10:31:16;;;;;;;20.75;10.35;;;25.70;99.90;;;;;;5024827;28;20026;-58
2023/09/11 10:33:45;;;;;;;29.27;10.32;;;25.70;99.90;;;;;;5025483;28;20129;-57
2023/09/11 10:36:13;;;;;;;21.08;9.77;;;25.80;99.90;;;;;;5025666;28;20220;-57
2023/09/11 10:38:41;;;;;;;27.65;9.35;;;26.00;99.90;;;;;;5026274;28;20365;-57
2023/09/11 10:41:08;;;;;;;17.88;9.00;;;26.00;99.90;;;;;;5025586;28;20052;-58
2023/09/11 10:43:34;;;;;;;16.00;9.15;;;25.90;99.90;;;;;;5024696;28;20030;-58
2023/09/11 10:46:14;;;;;;;18.17;9.68;;;25.90;99.90;;;;;;5026371;28;20052;-59
2023/09/11 10:48:39;;;;;;;19.90;9.63;;;26.00;99.90;;;;;;5006765;28;20053;-58
2023/09/11 10:51:05;;;;;;;20.85;9.70;;;26.00;99.90;;;;;;5006386;28;20037;-59
2023/09/11 10:53:31;;;;;;;14.27;8.98;;;26.00;99.90;;;;;;5005347;28;20045;-58
2023/09/11 10:56:00;;;;;;;23.15;9.15;;;26.10;99.90;;;;;;5006626;28;20029;-58
2023/09/11 10:58:28;;;;;;;20.30;9.30;;;26.10;99.90;;;;;;5005377;28;20041;-57
2023/09/11 11:00:54;;;;;;;13.70;8.73;;;26.00;99.90;;;;;;5005632;28;20053;-58
2023/09/11 11:03:21;;;;;;;16.38;8.85;;;26.10;99.90;;;;;;5004996;28;20438;-59
2023/09/11 11:05:47;;;;;;;27.80;10.52;;;26.10;99.90;;;;;;4999268;28;20052;-57
2023/09/11 11:08:14;;;;;;;15.73;8.82;;;26.10;99.90;;;;;;5005597;28;20061;-58
2023/09/11 11:10:41;;;;;;;17.70;8.57;;;26.30;99.90;;;;;;5005514;28;20498;-57
2023/09/11 11:13:09;;;;;;;19.48;9.00;;;26.20;99.90;;;;;;5005115;28;20033;-59
2023/09/11 11:15:35;;;;;;;16.73;8.80;;;26.20;99.90;;;;;;5003787;28;20433;-58
2023/09/11 11:18:30;;;;;;;17.88;9.32;;;26.20;99.90;;;;;;5007651;28;20167;-59
2023/09/11 11:21:04;;;;;;;21.40;9.15;;;26.30;99.90;;;;;;5000635;28;20038;-59
2023/09/11 11:23:33;;;;;;;25.83;9.18;;;26.30;99.90;;;;;;5004612;28;20188;-59
2023/09/11 11:26:06;;;;;;;21.90;9.18;;;26.30;99.90;;;;;;5006039;28;20041;-59
2023/09/11 11:28:41;;;;;;;;;;;26.50;99.90;;;;;;5013488;28;20045;-58
2023/09/11 11:31:08;;;;;;;18.25;9.30;;;26.50;99.90;;;;;;5004544;28;19952;-58
2023/09/11 11:33:37;;;;;;;21.10;9.63;;;26.50;99.90;;;;;;5005203;28;20134;-57
2023/09/11 11:36:05;;;;;;;18.05;8.70;;;26.60;99.90;;;;;;5005460;28;20042;-58
2023/09/11 11:38:31;;;;;;;18.15;9.23;;;26.50;99.90;;;;;;5004493;28;20125;-58
2023/09/11 11:40:57;;;;;;;18.60;9.63;;;26.50;99.90;;;;;;5005596;28;20133;-57
2023/09/11 11:43:23;;;;;;;21.17;9.48;;;26.70;99.90;;;;;;5004529;28;20034;-58
2023/09/11 11:45:49;;;;;;;25.52;9.90;;;26.70;99.90;;;;;;5005305;28;20077;-58
2023/09/11 11:48:15;;;;;;;13.18;8.57;;;26.70;99.90;;;;;;5003588;28;20081;-58
2023/09/11 11:50:45;;;;;;;17.75;9.65;;;26.70;99.90;;;;;;5004783;28;20537;-58
2023/09/11 11:53:15;;;;;;;23.63;10.13;;;26.80;99.90;;;;;;5004040;28;20026;-58
2023/09/11 11:55:42;;;;;;;18.05;8.85;;;26.90;99.90;;;;;;5004568;28;20038;-58
2023/09/11 11:58:09;;;;;;;16.90;9.02;;;26.80;99.90;;;;;;5004597;28;20582;-58
2023/09/11 12:00:37;;;;;;;15.43;8.95;;;26.80;99.90;;;;;;5003758;28;20072;-58
2023/09/11 12:03:04;;;;;;;18.55;10.02;;;27.00;99.90;;;;;;5004483;28;20041;-57
2023/09/11 12:05:30;;;;;;;18.83;9.40;;;26.90;99.90;;;;;;5021216;28;20036;-58
2023/09/11 12:07:56;;;;;;;19.15;9.93;;;27.00;99.90;;;;;;5008823;28;20046;-57
2023/09/11 12:10:21;;;;;;;20.48;9.45;;;27.00;99.90;;;;;;5003580;28;20096;-58
2023/09/11 12:12:47;;;;;;;19.98;10.32;;;27.00;99.90;;;;;;5004201;28;20041;-58
2023/09/11 12:15:13;;;;;;;14.95;9.15;;;27.10;99.90;;;;;;5004657;28;20130;-57
2023/09/11 12:17:46;;;;;;;20.98;9.90;;;27.00;99.90;;;;;;5004821;28;20049;-58
2023/09/11 12:20:19;;;;;;;19.75;10.48;;;27.00;99.90;;;;;;5004176;28;20042;-58
2023/09/11 12:22:46;;;;;;;25.23;10.32;;;27.20;99.90;;;;;;5009970;28;20044;-58
2023/09/11 12:25:13;;;;;;;18.08;9.27;;;27.10;99.90;;;;;;5047442;28;20196;-58
2023/09/11 12:27:39;;;;;;;15.82;9.88;;;27.10;99.90;;;;;;5004690;28;20528;-58
2023/09/11 12:30:06;;;;;;;24.60;10.93;;;27.70;99.90;;;;;;5003579;28;20111;-58